createdAt,value
2022-09-04T00:00:23.087Z,90.20
2022-09-04T00:03:41.490Z,90.40
2022-09-04T00:06:33.907Z,90.30
2022-09-04T00:09:28.231Z,90.50
2022-09-04T00:12:15.091Z,89.50
2022-09-04T00:15:21.226Z,89.20
2022-09-04T00:18:15.262Z,89.80
2022-09-04T00:21:20.158Z,89.70
2022-09-04T00:24:11.253Z,90.00
2022-09-04T00:27:11.593Z,89.00
2022-09-04T00:30:11.466Z,88.50
2022-09-04T00:33:19.184Z,89.70
2022-09-04T00:36:06.228Z,90.00
2022-09-04T00:39:09.511Z,90.40
2022-09-04T00:42:21.069Z,89.20
2022-09-04T00:45:16.674Z,89.80
2022-09-04T00:48:14.083Z,90.00
2022-09-04T00:51:27.415Z,89.80
2022-09-04T00:54:30.854Z,89.80
2022-09-04T00:57:16.139Z,89.80
2022-09-04T01:00:22.592Z,90.30
2022-09-04T01:03:07.840Z,90.30
2022-09-04T01:06:42.381Z,90.00
2022-09-04T01:10:04.581Z,90.10
2022-09-04T01:13:12.868Z,89.40
2022-09-04T01:16:06.471Z,89.70
2022-09-04T01:19:13.664Z,89.90
2022-09-04T01:22:21.307Z,89.30
2022-09-04T01:25:41.304Z,90.20
2022-09-04T01:28:58.833Z,90.40
2022-09-04T01:31:56.684Z,90.00
2022-09-04T01:35:02.381Z,90.20
2022-09-04T01:38:05.669Z,90.00
2022-09-04T01:41:07.012Z,91.10
2022-09-04T01:43:53.026Z,91.00
2022-09-04T01:47:15.249Z,90.00
2022-09-04T01:50:09.395Z,90.00
2022-09-04T01:53:20.611Z,90.10
2022-09-04T01:56:25.857Z,89.10
2022-09-04T01:59:32.831Z,89.50
2022-09-04T02:02:32.406Z,90.20
2022-09-04T02:05:49.500Z,89.40
2022-09-04T02:08:50.255Z,89.20
2022-09-04T02:11:35.416Z,88.90
2022-09-04T02:14:50.999Z,90.10
2022-09-04T02:17:55.416Z,89.60
2022-09-04T02:20:52.787Z,90.00
2022-09-04T02:23:51.878Z,90.30
2022-09-04T02:26:55.041Z,89.60
2022-09-04T02:29:55.202Z,90.10
2022-09-04T02:32:43.245Z,89.20
2022-09-04T02:36:02.779Z,88.10
2022-09-04T02:39:03.190Z,90.20
2022-09-04T02:41:58.401Z,90.20
2022-09-04T02:45:07.520Z,89.60
2022-09-04T02:48:24.559Z,90.00
2022-09-04T02:51:48.071Z,90.00
2022-09-04T02:54:43.204Z,90.10
2022-09-04T02:58:26.235Z,90.40
2022-09-04T03:01:22.187Z,90.80
2022-09-04T03:04:18.049Z,90.50
2022-09-04T03:07:24.567Z,90.20
2022-09-04T03:10:20.654Z,90.00
2022-09-04T03:13:09.973Z,90.50
2022-09-04T03:15:58.330Z,90.30
2022-09-04T03:19:19.830Z,90.50
2022-09-04T03:22:39.309Z,90.10
2022-09-04T03:25:48.808Z,89.70
2022-09-04T03:28:58.435Z,90.40
2022-09-04T03:31:46.632Z,89.90
2022-09-04T03:34:46.684Z,90.50
2022-09-04T03:38:16.903Z,90.40
2022-09-04T03:41:19.755Z,90.10
2022-09-04T03:44:40.022Z,90.00
2022-09-04T03:48:03.095Z,89.90
2022-09-04T03:51:17.611Z,90.40
2022-09-04T03:54:12.422Z,90.20
2022-09-04T03:57:19.702Z,90.10
2022-09-04T04:00:11.086Z,90.10
2022-09-04T04:03:16.940Z,90.30
2022-09-04T04:06:29.961Z,90.50
2022-09-04T04:09:18.747Z,89.20
2022-09-04T04:12:16.316Z,90.90
2022-09-04T04:15:12.231Z,90.90
2022-09-04T04:18:24.983Z,91.60
2022-09-04T04:21:13.302Z,91.60
2022-09-04T04:24:18.899Z,91.80
2022-09-04T04:27:28.692Z,92.20
2022-09-04T04:30:17.686Z,92.40
2022-09-04T04:33:20.287Z,92.10
2022-09-04T04:36:25.433Z,92.10
2022-09-04T04:39:30.153Z,92.20
2022-09-04T04:42:25.175Z,92.40
2022-09-04T04:45:42.184Z,92.30
2022-09-04T04:48:45.937Z,92.00
2022-09-04T04:51:56.297Z,91.80
2022-09-04T04:54:51.341Z,91.80
2022-09-04T04:57:45.588Z,91.70
2022-09-04T05:00:56.142Z,91.70
2022-09-04T05:04:03.209Z,91.70
2022-09-04T05:07:01.755Z,92.10
2022-09-04T05:09:58.280Z,91.50
2022-09-04T05:13:10.400Z,92.00
2022-09-04T05:16:19.125Z,92.00
2022-09-04T05:19:19.755Z,91.90
2022-09-04T05:22:13.902Z,92.00
2022-09-04T05:25:38.196Z,91.80
2022-09-04T05:28:35.570Z,92.60
2022-09-04T05:31:24.734Z,93.00
2022-09-04T05:34:52.582Z,92.50
2022-09-04T05:38:02.428Z,93.30
2022-09-04T05:41:06.824Z,93.60
2022-09-04T05:44:08.407Z,93.60
2022-09-04T05:47:19.584Z,93.80
2022-09-04T05:50:16.896Z,93.50
2022-09-04T05:53:34.294Z,94.30
2022-09-04T05:56:25.129Z,94.60
2022-09-04T05:59:19.552Z,94.50
2022-09-04T06:02:46.002Z,94.60
2022-09-04T06:05:56.019Z,93.90
2022-09-04T06:08:52.369Z,94.80
2022-09-04T06:12:07.131Z,94.60
2022-09-04T06:15:04.350Z,94.70
2022-09-04T06:17:59.927Z,95.00
2022-09-04T06:21:27.504Z,95.30
2022-09-04T06:24:42.856Z,95.10
2022-09-04T06:27:56.044Z,95.70
2022-09-04T06:30:50.464Z,95.60
2022-09-04T06:33:53.770Z,95.90
2022-09-04T06:37:02.645Z,96.20
2022-09-04T06:40:08.441Z,96.40
2022-09-04T06:43:10.985Z,96.90
2022-09-04T06:46:08.786Z,96.70
2022-09-04T06:49:24.031Z,96.70
2022-09-04T06:52:32.492Z,97.00
2022-09-04T06:55:50.569Z,97.20
2022-09-04T06:59:24.403Z,97.20
2022-09-04T07:02:39.565Z,97.40
2022-09-04T07:05:27.629Z,97.30
2022-09-04T07:08:25.772Z,97.10
2022-09-04T07:11:57.021Z,97.50
2022-09-04T07:14:57.563Z,97.50
2022-09-04T07:17:55.026Z,97.80
2022-09-04T07:21:05.408Z,97.90
2022-09-04T07:24:15.744Z,97.70
2022-09-04T07:27:23.596Z,97.90
2022-09-04T07:30:11.879Z,97.90
2022-09-04T07:33:04.549Z,98.20
2022-09-04T07:36:11.020Z,98.40
2022-09-04T07:39:19.631Z,97.90
2022-09-04T07:42:14.832Z,98.30
2022-09-04T07:45:07.534Z,98.50
2022-09-04T07:48:09.086Z,98.10
2022-09-04T07:51:04.712Z,98.00
2022-09-04T07:54:32.296Z,98.00
2022-09-04T07:57:29.533Z,98.00
2022-09-04T08:00:18.164Z,98.00
2022-09-04T08:03:07.010Z,97.90
2022-09-04T08:06:11.632Z,97.90
2022-09-04T08:09:15.392Z,97.80
2022-09-04T08:12:18.959Z,97.90
2022-09-04T08:15:13.607Z,97.90
2022-09-04T08:18:24.643Z,97.60
2022-09-04T08:21:35.669Z,97.70
2022-09-04T08:24:42.976Z,97.50
2022-09-04T08:27:44.871Z,97.20
2022-09-04T08:30:41.829Z,97.10
2022-09-04T08:33:54.015Z,96.80
2022-09-04T08:36:59.283Z,97.10
2022-09-04T08:39:54.188Z,96.80
2022-09-04T08:43:07.393Z,96.60
2022-09-04T08:46:26.984Z,96.30
2022-09-04T08:49:33.526Z,96.80
2022-09-04T08:52:50.708Z,97.10
2022-09-04T08:55:44.392Z,97.30
2022-09-04T08:58:55.240Z,97.40
2022-09-04T09:02:22.066Z,97.10
2022-09-04T09:05:32.315Z,96.70
2022-09-04T09:08:45.387Z,96.20
2022-09-04T09:11:49.970Z,95.80
2022-09-04T09:15:03.367Z,95.50
2022-09-04T09:17:59.904Z,95.30
2022-09-04T09:21:01.114Z,95.20
2022-09-04T09:23:59.281Z,94.80
2022-09-04T09:27:24.748Z,94.40
2022-09-04T09:30:21.466Z,94.40
2022-09-04T09:33:38.480Z,94.10
2022-09-04T09:37:10.929Z,94.10
2022-09-04T09:40:26.880Z,94.00
2022-09-04T09:43:21.105Z,93.60
2022-09-04T09:46:38.477Z,93.30
2022-09-04T09:50:01.365Z,93.10
2022-09-04T09:53:01.906Z,92.80
2022-09-04T09:56:27.217Z,92.80
2022-09-04T09:59:24.455Z,92.40
2022-09-04T10:02:38.714Z,91.70
2022-09-04T10:05:58.417Z,91.20
2022-09-04T10:09:20.598Z,91.00
2022-09-04T10:12:24.403Z,90.20
2022-09-04T10:15:40.304Z,90.00
2022-09-04T10:18:44.951Z,90.20
2022-09-04T10:21:56.642Z,89.10
2022-09-04T10:25:13.843Z,87.50
2022-09-04T10:28:14.241Z,86.60
2022-09-04T10:31:27.746Z,84.50
2022-09-04T10:34:42.290Z,85.30
2022-09-04T10:37:36.339Z,84.80
2022-09-04T10:40:52.892Z,83.90
2022-09-04T10:43:47.008Z,84.00
2022-09-04T10:47:02.885Z,82.10
2022-09-04T10:50:13.363Z,81.40
2022-09-04T10:53:07.515Z,80.80
2022-09-04T10:56:06.972Z,80.40
2022-09-04T10:59:24.628Z,80.30
2022-09-04T11:02:25.275Z,79.40
2022-09-04T11:05:36.473Z,77.70
2022-09-04T11:08:36.215Z,77.70
2022-09-04T11:11:39.056Z,76.80
2022-09-04T11:14:37.826Z,76.20
2022-09-04T11:17:53.188Z,76.40
2022-09-04T11:20:55.856Z,74.90
2022-09-04T11:24:14.282Z,74.30
2022-09-04T11:27:20.309Z,74.00
2022-09-04T11:30:21.168Z,72.70
2022-09-04T11:33:42.412Z,72.00
2022-09-04T11:36:54.393Z,71.80
2022-09-04T11:39:42.559Z,72.90
2022-09-04T11:43:13.985Z,72.60
2022-09-04T11:46:05.510Z,70.30
2022-09-04T11:48:56.733Z,70.80
2022-09-04T11:52:34.676Z,69.40
2022-09-04T11:55:54.185Z,67.30
2022-09-04T11:58:42.162Z,66.50
2022-09-04T12:01:31.744Z,66.90
2022-09-04T12:04:54.840Z,66.30
2022-09-04T12:08:29.348Z,66.90
2022-09-04T12:11:42.704Z,65.90
2022-09-04T12:14:59.280Z,64.40
2022-09-04T12:18:31.300Z,64.80
2022-09-04T12:21:51.329Z,65.00
2022-09-04T12:25:00.387Z,64.20
2022-09-04T12:28:04.654Z,64.70
2022-09-04T12:31:27.109Z,65.10
2022-09-04T12:34:50.489Z,64.90
2022-09-04T12:37:35.515Z,64.30
2022-09-04T12:40:58.043Z,64.50
2022-09-04T12:43:51.645Z,62.90
2022-09-04T12:46:48.680Z,63.60
2022-09-04T12:49:58.145Z,63.80
2022-09-04T12:53:11.487Z,62.80
2022-09-04T12:56:10.124Z,62.30
2022-09-04T12:58:55.106Z,62.10
2022-09-04T13:02:18.284Z,61.10
2022-09-04T13:05:52.755Z,62.00
2022-09-04T13:09:13.243Z,62.10
2022-09-04T13:12:08.987Z,61.40
2022-09-04T13:15:21.900Z,62.20
2022-09-04T13:18:24.153Z,61.60
2022-09-04T13:21:15.273Z,62.00
2022-09-04T13:24:35.802Z,61.70
2022-09-04T13:28:12.151Z,61.80
2022-09-04T13:31:22.475Z,61.40
2022-09-04T13:34:30.744Z,61.80
2022-09-04T13:37:52.848Z,61.40
2022-09-04T13:41:00.144Z,61.50
2022-09-04T13:44:29.531Z,62.30
2022-09-04T13:47:26.019Z,62.10
2022-09-04T13:50:42.865Z,61.40
2022-09-04T13:53:38.737Z,61.60
2022-09-04T13:56:39.726Z,60.80
2022-09-04T13:59:25.830Z,61.20
2022-09-04T14:02:14.521Z,60.00
2022-09-04T14:05:21.869Z,60.30
2022-09-04T14:08:14.646Z,59.80
2022-09-04T14:11:23.975Z,60.00
2022-09-04T14:14:38.895Z,60.00
2022-09-04T14:17:31.459Z,58.90
2022-09-04T14:20:40.512Z,58.10
2022-09-04T14:23:52.792Z,57.70
2022-09-04T14:26:52.922Z,59.00
2022-09-04T14:29:44.161Z,58.80
2022-09-04T14:32:38.109Z,59.20
2022-09-04T14:35:49.299Z,59.50
2022-09-04T14:38:35.237Z,61.00
2022-09-04T14:42:02.947Z,60.50
2022-09-04T14:45:14.976Z,60.40
2022-09-04T14:48:05.631Z,60.80
2022-09-04T14:50:57.610Z,60.70
2022-09-04T14:53:49.622Z,61.10
2022-09-04T14:56:41.041Z,61.40
2022-09-04T14:59:38.224Z,62.20
2022-09-04T15:02:33.237Z,62.50
2022-09-04T15:05:30.968Z,62.80
2022-09-04T15:08:27.091Z,63.30
2022-09-04T15:11:31.199Z,63.40
2022-09-04T15:14:32.789Z,63.60
2022-09-04T15:17:28.173Z,64.10
2022-09-04T15:20:22.625Z,64.50
2022-09-04T15:23:22.233Z,63.80
2022-09-04T15:26:37.895Z,64.30
2022-09-04T15:29:28.369Z,64.00
2022-09-04T15:32:21.575Z,63.60
2022-09-04T15:35:28.391Z,63.80
2022-09-04T15:38:25.276Z,64.10
2022-09-04T15:41:44.609Z,64.40
2022-09-04T15:44:40.576Z,64.50
2022-09-04T15:47:44.307Z,64.70
2022-09-04T15:50:34.250Z,64.80
2022-09-04T15:53:34.645Z,64.60
2022-09-04T15:56:19.887Z,64.20
2022-09-04T15:59:21.997Z,64.70
2022-09-04T16:02:20.626Z,64.50
2022-09-04T16:05:20.582Z,63.90
2022-09-04T16:08:38.385Z,64.20
2022-09-04T16:11:45.355Z,63.40
2022-09-04T16:14:44.635Z,63.80
2022-09-04T16:17:38.803Z,65.20
2022-09-04T16:20:50.819Z,64.20
2022-09-04T16:23:38.354Z,64.20
2022-09-04T16:26:28.785Z,65.30
2022-09-04T16:29:36.620Z,64.30
2022-09-04T16:32:25.692Z,65.00
2022-09-04T16:35:19.154Z,65.40
2022-09-04T16:38:25.796Z,65.90
2022-09-04T16:41:26.282Z,67.10
2022-09-04T16:44:26.053Z,66.80
2022-09-04T16:47:31.588Z,67.20
2022-09-04T16:50:45.437Z,67.80
2022-09-04T16:53:43.440Z,67.70
2022-09-04T16:56:45.527Z,67.60
2022-09-04T16:59:34.290Z,67.40
2022-09-04T17:02:50.758Z,67.00
2022-09-04T17:05:54.112Z,67.10
2022-09-04T17:08:59.538Z,67.40
2022-09-04T17:12:02.507Z,67.20
2022-09-04T17:15:08.218Z,67.20
2022-09-04T17:17:54.426Z,67.60
2022-09-04T17:24:59.878Z,67.30
2022-09-04T17:29:12.644Z,67.80
2022-09-04T17:29:19.232Z,67.30
2022-09-04T17:30:48.959Z,67.90
2022-09-04T17:40:41.684Z,68.80
2022-09-04T17:40:51.892Z,69.20
2022-09-04T17:41:37.916Z,69.70
2022-09-04T17:44:14.300Z,70.20
2022-09-04T17:47:12.641Z,70.30
2022-09-04T17:49:59.084Z,70.40
2022-09-04T17:53:01.260Z,70.60
2022-09-04T17:55:48.171Z,70.90
2022-09-04T17:58:54.802Z,71.40
2022-09-04T18:01:51.499Z,71.70
2022-09-04T18:04:37.572Z,71.60
2022-09-04T18:08:07.472Z,71.80
2022-09-04T18:11:17.951Z,72.20
2022-09-04T18:14:41.574Z,71.80
2022-09-04T18:17:42.747Z,71.60
2022-09-04T18:20:37.615Z,72.20
2022-09-04T18:23:46.391Z,72.60
2022-09-04T18:26:46.803Z,73.20
2022-09-04T18:36:45.496Z,73.50
2022-09-04T18:37:20.592Z,74.20
2022-09-04T18:37:26.210Z,73.80
2022-09-04T18:39:50.420Z,74.60
2022-09-04T18:50:22.510Z,75.30
2022-09-04T18:50:32.964Z,75.10
2022-09-04T18:50:38.688Z,75.20
2022-09-04T18:52:19.423Z,74.80
2022-09-04T18:55:14.658Z,74.50
2022-09-04T18:58:28.203Z,75.50
2022-09-04T19:01:31.591Z,75.20
2022-09-04T19:04:43.407Z,75.40
2022-09-04T19:07:44.408Z,75.80
2022-09-04T19:10:52.477Z,76.30
2022-09-04T19:13:50.368Z,76.50
2022-09-04T19:16:43.942Z,77.10
2022-09-04T19:19:41.840Z,77.00
2022-09-04T19:22:35.613Z,77.40
2022-09-04T19:25:33.820Z,77.10
2022-09-04T19:28:24.943Z,77.00
2022-09-04T19:31:37.327Z,77.20
2022-09-04T19:34:37.088Z,77.50
2022-09-04T19:39:15.471Z,78.00
2022-09-04T19:46:01.173Z,78.40
2022-09-04T19:46:11.591Z,78.50
2022-09-04T19:48:18.886Z,79.10
2022-09-04T19:53:36.808Z,79.70
2022-09-04T19:54:27.297Z,80.20
2022-09-04T19:57:39.247Z,80.90
2022-09-04T20:00:42.633Z,80.70
2022-09-04T20:03:39.192Z,80.70
2022-09-04T20:06:30.278Z,80.50
2022-09-04T20:09:41.031Z,80.50
2022-09-04T20:12:31.997Z,80.70
2022-09-04T20:15:22.229Z,81.00
2022-09-04T20:18:22.257Z,81.00
2022-09-04T20:21:43.673Z,80.70
2022-09-04T20:25:01.478Z,81.60
2022-09-04T20:27:54.071Z,81.40
2022-09-04T20:30:45.111Z,82.00
2022-09-04T20:33:34.781Z,81.90
2022-09-04T20:36:25.821Z,82.10
2022-09-04T20:39:19.446Z,82.00
2022-09-04T20:42:28.749Z,82.20
2022-09-04T20:50:21.819Z,82.10
2022-09-04T20:52:52.982Z,81.60
2022-09-04T20:53:06.180Z,81.70
2022-09-04T20:55:49.553Z,81.50
2022-09-04T21:03:08.299Z,81.10
2022-09-04T21:03:17.494Z,81.40
2022-09-04T21:06:07.614Z,81.80
2022-09-04T21:09:11.394Z,81.60
2022-09-04T21:12:23.846Z,81.70
2022-09-04T21:15:42.500Z,81.10
2022-09-04T21:19:13.024Z,81.60
2022-09-04T21:22:36.523Z,81.70
2022-09-04T21:25:55.247Z,81.40
2022-09-04T21:28:58.288Z,81.60
2022-09-04T21:32:07.550Z,81.90
2022-09-04T21:35:20.128Z,82.10
2022-09-04T21:38:21.056Z,81.80
2022-09-04T21:41:21.244Z,82.00
2022-09-04T21:44:18.110Z,82.10
2022-09-04T21:47:32.847Z,82.20
2022-09-04T21:50:52.528Z,82.20
2022-09-04T21:53:48.032Z,82.20
2022-09-04T22:02:29.946Z,82.10
2022-09-04T22:02:39.682Z,82.10
2022-09-04T22:03:34.739Z,82.20
2022-09-04T22:10:21.713Z,82.10
2022-09-04T22:13:26.665Z,82.40
2022-09-04T22:13:38.283Z,82.30
2022-09-04T22:16:56.605Z,82.50
2022-09-04T22:20:09.073Z,82.30
2022-09-04T22:23:09.878Z,82.90
2022-09-04T22:26:36.012Z,82.30
2022-09-04T22:29:53.454Z,82.40
2022-09-04T22:36:26.238Z,82.30
2022-09-04T22:39:49.029Z,82.70
2022-09-04T22:42:45.987Z,82.60
2022-09-04T22:45:53.963Z,82.80
2022-09-04T22:49:11.687Z,82.90
2022-09-04T22:52:17.966Z,83.20
2022-09-04T22:55:38.966Z,83.10
2022-09-04T22:58:55.639Z,83.80
2022-09-04T23:02:54.195Z,83.80
2022-09-04T23:07:59.142Z,83.30
2022-09-04T23:13:43.410Z,83.60
2022-09-04T23:13:58.088Z,83.20
2022-09-04T23:16:28.544Z,83.60
2022-09-04T23:26:36.127Z,83.80
2022-09-04T23:26:47.350Z,84.00
2022-09-04T23:26:59.893Z,83.40
2022-09-04T23:30:12.445Z,84.10
2022-09-04T23:33:14.920Z,84.10
2022-09-04T23:36:33.161Z,84.20
2022-09-04T23:39:43.158Z,84.50
2022-09-04T23:43:07.522Z,84.90
2022-09-04T23:46:13.190Z,85.10
2022-09-04T23:49:24.546Z,85.40
2022-09-04T23:52:34.826Z,85.20
2022-09-04T23:55:55.844Z,85.30
2022-09-04T23:59:17.821Z,85.60
